createdAt,value
2023-04-26T00:00:07.376Z,3.00
2023-04-26T00:01:07.357Z,2.90
2023-04-26T00:02:07.373Z,2.60
2023-04-26T00:03:07.445Z,2.90
2023-04-26T00:04:07.689Z,2.80
2023-04-26T00:05:07.516Z,3.30
2023-04-26T00:06:07.273Z,3.00
2023-04-26T00:07:07.321Z,2.90
2023-04-26T00:08:07.251Z,3.30
2023-04-26T00:09:07.254Z,2.90
2023-04-26T00:10:07.285Z,3.40
2023-04-26T00:11:07.239Z,3.20
2023-04-26T00:12:07.286Z,3.40
2023-04-26T00:13:07.275Z,3.40
2023-04-26T00:14:07.189Z,2.90
2023-04-26T00:15:07.263Z,3.90
2023-04-26T00:16:07.243Z,3.00
2023-04-26T00:17:07.165Z,3.40
2023-04-26T00:18:07.208Z,2.90
2023-04-26T00:19:07.138Z,2.90
2023-04-26T00:20:07.139Z,2.50
2023-04-26T00:21:07.148Z,2.60
2023-04-26T00:22:07.164Z,2.70
2023-04-26T00:23:07.125Z,2.80
2023-04-26T00:24:07.112Z,2.90
2023-04-26T00:25:07.101Z,2.70
2023-04-26T00:26:07.043Z,2.80
2023-04-26T00:27:07.068Z,3.10
2023-04-26T00:28:07.055Z,2.90
2023-04-26T00:29:07.048Z,3.40
2023-04-26T00:30:07.008Z,3.40
2023-04-26T00:31:06.994Z,3.00
2023-04-26T00:32:07.091Z,3.30
2023-04-26T00:33:07.018Z,3.10
2023-04-26T00:34:06.958Z,3.40
2023-04-26T00:35:06.968Z,3.20
2023-04-26T00:36:06.953Z,3.10
2023-04-26T00:37:06.966Z,3.30
2023-04-26T00:38:06.913Z,3.50
2023-04-26T00:39:06.903Z,3.20
2023-04-26T00:40:06.931Z,3.20
2023-04-26T00:41:06.894Z,3.30
2023-04-26T00:42:06.887Z,3.80
2023-04-26T00:43:06.874Z,3.60
2023-04-26T00:44:06.868Z,3.50
2023-04-26T00:45:06.829Z,3.20
2023-04-26T00:46:06.865Z,3.10
2023-04-26T00:47:06.816Z,3.70
2023-04-26T00:48:07.016Z,3.70
2023-04-26T00:49:06.814Z,3.30
2023-04-26T00:50:06.778Z,3.60
2023-04-26T00:51:06.776Z,3.40
2023-04-26T00:52:06.752Z,3.80
2023-04-26T00:53:06.776Z,3.40
2023-04-26T00:54:06.740Z,3.70
2023-04-26T00:55:06.724Z,3.80
2023-04-26T00:56:06.830Z,3.80
2023-04-26T00:57:06.699Z,4.10
2023-04-26T00:58:06.730Z,3.60
2023-04-26T00:59:06.688Z,3.30
2023-04-26T01:00:06.672Z,3.40
2023-04-26T01:01:06.704Z,3.70
2023-04-26T01:02:06.703Z,3.40
2023-04-26T01:03:06.731Z,2.80
2023-04-26T01:04:06.781Z,3.70
2023-04-26T01:05:06.625Z,3.90
2023-04-26T01:06:06.634Z,3.70
2023-04-26T01:07:06.602Z,3.50
2023-04-26T01:08:06.599Z,3.40
2023-04-26T01:09:06.572Z,3.80
2023-04-26T01:10:06.586Z,3.60
2023-04-26T01:11:06.561Z,3.70
2023-04-26T01:12:06.544Z,3.90
2023-04-26T01:13:06.560Z,3.40
2023-04-26T01:14:06.518Z,3.10
2023-04-26T01:15:06.521Z,3.50
2023-04-26T01:16:06.496Z,3.20
2023-04-26T01:17:06.512Z,3.30
2023-04-26T01:18:06.541Z,4.00
2023-04-26T01:19:07.593Z,3.70
2023-04-26T01:20:06.450Z,3.10
2023-04-26T01:21:06.441Z,3.50
2023-04-26T01:22:06.426Z,3.30
2023-04-26T01:23:06.430Z,4.20
2023-04-26T01:24:06.399Z,3.50
2023-04-26T01:25:06.391Z,3.50
2023-04-26T01:26:06.407Z,3.40
2023-04-26T01:27:06.370Z,3.50
2023-04-26T01:28:06.436Z,3.60
2023-04-26T01:29:06.348Z,3.70
2023-04-26T01:30:06.334Z,3.40
2023-04-26T01:31:06.368Z,3.80
2023-04-26T01:32:06.322Z,3.60
2023-04-26T01:33:06.352Z,3.70
2023-04-26T01:34:06.340Z,3.60
2023-04-26T01:35:06.330Z,3.90
2023-04-26T01:36:06.266Z,4.30
2023-04-26T01:37:06.253Z,3.30
2023-04-26T01:38:06.282Z,3.60
2023-04-26T01:39:06.261Z,3.40
2023-04-26T01:40:06.221Z,3.60
2023-04-26T01:41:06.210Z,3.60
2023-04-26T01:42:06.209Z,3.80
2023-04-26T01:43:06.228Z,3.90
2023-04-26T01:44:06.198Z,3.20
2023-04-26T01:45:06.170Z,3.70
2023-04-26T01:46:06.200Z,4.00
2023-04-26T01:47:06.163Z,3.70
2023-04-26T01:48:06.172Z,4.10
2023-04-26T01:49:06.187Z,3.80
2023-04-26T01:50:06.111Z,3.70
2023-04-26T01:51:06.145Z,4.00
2023-04-26T01:52:06.093Z,4.30
2023-04-26T01:53:06.085Z,4.40
2023-04-26T01:54:06.078Z,4.10
2023-04-26T01:55:06.082Z,3.90
2023-04-26T01:56:06.057Z,3.80
2023-04-26T01:57:06.036Z,4.00
2023-04-26T01:58:06.030Z,3.80
2023-04-26T01:59:06.028Z,3.80
2023-04-26T02:00:06.011Z,3.90
2023-04-26T02:01:06.006Z,3.50
2023-04-26T02:02:06.089Z,4.70
2023-04-26T02:03:06.067Z,4.10
2023-04-26T02:04:05.982Z,3.70
2023-04-26T02:05:05.952Z,3.90
2023-04-26T02:06:05.965Z,3.60
2023-04-26T02:07:05.940Z,4.20
2023-04-26T02:08:05.908Z,4.00
2023-04-26T02:09:05.915Z,4.30
2023-04-26T02:10:05.905Z,3.70
2023-04-26T02:11:05.879Z,4.00
2023-04-26T02:12:05.934Z,4.30
2023-04-26T02:13:05.865Z,3.70
2023-04-26T02:14:05.850Z,3.90
2023-04-26T02:15:05.861Z,4.10
2023-04-26T02:16:05.870Z,3.90
2023-04-26T02:17:05.816Z,3.80
2023-04-26T02:18:05.916Z,4.50
2023-04-26T02:19:05.812Z,3.90
2023-04-26T02:20:05.792Z,4.10
2023-04-26T02:21:05.770Z,4.30
2023-04-26T02:22:05.789Z,3.60
2023-04-26T02:23:05.787Z,4.00
2023-04-26T02:24:05.744Z,4.50
2023-04-26T02:25:05.751Z,4.00
2023-04-26T02:26:05.761Z,3.90
2023-04-26T02:27:05.739Z,3.80
2023-04-26T02:28:05.735Z,3.80
2023-04-26T02:29:05.693Z,4.10
2023-04-26T02:30:05.681Z,4.30
2023-04-26T02:31:05.743Z,3.60
2023-04-26T02:32:05.661Z,4.10
2023-04-26T02:33:05.704Z,3.80
2023-04-26T02:34:05.631Z,3.40
2023-04-26T02:35:05.616Z,4.50
2023-04-26T02:36:05.619Z,4.30
2023-04-26T02:37:05.592Z,4.00
2023-04-26T02:38:05.600Z,4.30
2023-04-26T02:39:05.586Z,3.40
2023-04-26T02:40:05.566Z,3.70
2023-04-26T02:41:05.575Z,3.50
2023-04-26T02:42:05.584Z,3.70
2023-04-26T02:43:05.558Z,3.70
2023-04-26T02:44:05.536Z,3.50
2023-04-26T02:45:05.555Z,3.90
2023-04-26T02:46:05.527Z,3.60
2023-04-26T02:47:05.581Z,3.80
2023-04-26T02:48:05.521Z,3.80
2023-04-26T02:49:05.485Z,3.70
2023-04-26T02:50:05.476Z,3.70
2023-04-26T02:51:05.445Z,3.20
2023-04-26T02:52:05.452Z,3.50
2023-04-26T02:53:05.432Z,4.20
2023-04-26T02:54:06.940Z,3.60
2023-04-26T02:55:05.424Z,3.50
2023-04-26T02:56:05.397Z,4.10
2023-04-26T02:57:05.404Z,3.70
2023-04-26T02:58:05.386Z,3.60
2023-04-26T02:59:05.343Z,3.80
2023-04-26T03:00:05.350Z,3.70
2023-04-26T03:01:05.403Z,4.10
2023-04-26T03:02:05.340Z,4.00
2023-04-26T03:03:05.485Z,3.50
2023-04-26T03:04:05.381Z,3.90
2023-04-26T03:05:05.307Z,3.30
2023-04-26T03:06:05.269Z,3.50
2023-04-26T03:07:05.262Z,3.70
2023-04-26T03:08:05.302Z,3.80
2023-04-26T03:09:05.236Z,3.40
2023-04-26T03:10:05.231Z,3.60
2023-04-26T03:11:05.237Z,3.60
2023-04-26T03:12:05.218Z,4.00
2023-04-26T03:13:05.215Z,3.60
2023-04-26T03:14:05.191Z,3.40
2023-04-26T03:15:05.179Z,3.80
2023-04-26T03:16:05.191Z,3.40
2023-04-26T03:17:05.182Z,3.30
2023-04-26T03:18:05.187Z,2.60
2023-04-26T03:19:05.124Z,3.50
2023-04-26T03:20:05.121Z,3.80
2023-04-26T03:21:05.126Z,3.30
2023-04-26T03:22:05.099Z,3.40
2023-04-26T03:23:05.097Z,3.70
2023-04-26T03:24:05.073Z,3.50
2023-04-26T03:25:05.168Z,3.50
2023-04-26T03:26:05.058Z,3.60
2023-04-26T03:27:05.070Z,3.20
2023-04-26T03:28:05.060Z,3.90
2023-04-26T03:29:05.025Z,3.10
2023-04-26T03:30:05.031Z,3.30
2023-04-26T03:31:05.012Z,4.00
2023-04-26T03:32:05.074Z,3.10
2023-04-26T03:33:05.087Z,3.20
2023-04-26T03:34:04.957Z,3.90
2023-04-26T03:35:04.967Z,3.00
2023-04-26T03:36:04.948Z,3.50
2023-04-26T03:37:04.949Z,3.70
2023-04-26T03:38:04.955Z,3.80
2023-04-26T03:39:04.910Z,3.50
2023-04-26T03:40:04.909Z,3.20
2023-04-26T03:41:04.930Z,4.30
2023-04-26T03:42:04.879Z,3.70
2023-04-26T03:43:04.872Z,3.40
2023-04-26T03:44:04.888Z,3.30
2023-04-26T03:45:04.858Z,3.60
2023-04-26T03:46:04.920Z,3.20
2023-04-26T03:47:04.838Z,4.10
2023-04-26T03:48:04.875Z,3.50
2023-04-26T03:49:04.826Z,3.50
2023-04-26T03:50:04.801Z,3.20
2023-04-26T03:51:04.780Z,3.20
2023-04-26T03:52:04.815Z,3.20
2023-04-26T03:53:04.763Z,3.60
2023-04-26T03:54:04.793Z,3.70
2023-04-26T03:55:04.738Z,3.50
2023-04-26T03:56:04.723Z,3.30
2023-04-26T03:57:04.749Z,2.80
2023-04-26T03:58:04.735Z,3.70
2023-04-26T03:59:04.736Z,3.40
2023-04-26T04:00:04.674Z,3.40
2023-04-26T04:01:04.673Z,3.90
2023-04-26T04:02:04.686Z,3.80
2023-04-26T04:03:04.731Z,3.30
2023-04-26T04:04:04.988Z,3.60
2023-04-26T04:05:04.757Z,3.90
2023-04-26T04:06:04.631Z,3.90
2023-04-26T04:07:04.624Z,4.10
2023-04-26T04:08:04.734Z,3.80
2023-04-26T04:09:04.619Z,3.80
2023-04-26T04:10:04.586Z,3.40
2023-04-26T04:11:04.588Z,3.30
2023-04-26T04:12:04.538Z,4.20
2023-04-26T04:13:04.545Z,3.80
2023-04-26T04:14:04.548Z,3.60
2023-04-26T04:15:04.555Z,3.30
2023-04-26T04:16:04.559Z,3.40
2023-04-26T04:17:04.491Z,3.40
2023-04-26T04:18:04.491Z,3.30
2023-04-26T04:19:04.509Z,3.10
2023-04-26T04:20:04.459Z,3.50
2023-04-26T04:21:04.471Z,3.80
2023-04-26T04:22:04.440Z,3.40
2023-04-26T04:23:04.532Z,3.40
2023-04-26T04:24:04.431Z,2.90
2023-04-26T04:25:04.406Z,3.50
2023-04-26T04:26:04.418Z,3.30
2023-04-26T04:27:04.389Z,3.60
2023-04-26T04:28:04.374Z,3.40
2023-04-26T04:29:04.389Z,3.60
2023-04-26T04:30:04.350Z,3.80
2023-04-26T04:31:04.413Z,3.30
2023-04-26T04:32:07.337Z,3.60
2023-04-26T04:33:04.351Z,3.90
2023-04-26T04:34:04.330Z,4.40
2023-04-26T04:35:04.305Z,3.00
2023-04-26T04:36:04.293Z,3.50
2023-04-26T04:37:04.333Z,3.60
2023-04-26T04:38:04.343Z,3.70
2023-04-26T04:39:04.264Z,3.40
2023-04-26T04:40:04.254Z,3.80
2023-04-26T04:41:04.266Z,4.20
2023-04-26T04:42:04.228Z,3.80
2023-04-26T04:43:04.211Z,3.90
2023-04-26T04:44:04.226Z,3.60
2023-04-26T04:45:04.174Z,3.30
2023-04-26T04:46:04.210Z,3.40
2023-04-26T04:47:04.177Z,3.90
2023-04-26T04:48:04.202Z,3.60
2023-04-26T04:49:04.151Z,3.60
2023-04-26T04:50:04.138Z,3.90
2023-04-26T04:51:04.172Z,4.00
2023-04-26T04:52:04.123Z,4.10
2023-04-26T04:53:04.117Z,3.50
2023-04-26T04:54:04.086Z,3.40
2023-04-26T04:55:04.085Z,3.80
2023-04-26T04:56:04.067Z,3.70
2023-04-26T04:57:04.054Z,4.00
2023-04-26T04:58:04.076Z,3.50
2023-04-26T04:59:04.032Z,3.60
2023-04-26T05:00:04.027Z,3.80
2023-04-26T05:01:04.009Z,3.80
2023-04-26T05:02:04.077Z,4.10
2023-04-26T05:03:04.171Z,3.90
2023-04-26T05:04:04.131Z,4.80
2023-04-26T05:05:03.981Z,3.90
2023-04-26T05:06:03.965Z,4.00
2023-04-26T05:07:03.938Z,3.90
2023-04-26T05:08:03.938Z,3.90
2023-04-26T05:09:03.919Z,3.80
2023-04-26T05:10:03.939Z,3.60
2023-04-26T05:11:03.908Z,4.40
2023-04-26T05:12:03.892Z,4.00
2023-04-26T05:13:03.896Z,3.90
2023-04-26T05:14:03.873Z,4.00
2023-04-26T05:15:03.864Z,4.10
2023-04-26T05:16:03.896Z,4.10
2023-04-26T05:17:03.829Z,4.00
2023-04-26T05:18:03.913Z,3.60
2023-04-26T05:19:03.804Z,4.00
2023-04-26T05:20:04.335Z,4.50
2023-04-26T05:21:03.786Z,3.80
2023-04-26T05:22:03.795Z,4.10
2023-04-26T05:23:03.797Z,3.70
2023-04-26T05:24:03.745Z,3.90
2023-04-26T05:25:03.768Z,4.30
2023-04-26T05:26:03.723Z,4.10
2023-04-26T05:27:03.740Z,4.20
2023-04-26T05:28:03.727Z,4.20
2023-04-26T05:29:03.734Z,4.20
2023-04-26T05:30:03.691Z,4.30
2023-04-26T05:31:03.688Z,3.90
2023-04-26T05:32:03.821Z,5.00
2023-04-26T05:33:03.735Z,4.30
2023-04-26T05:34:03.652Z,4.30
2023-04-26T05:35:03.651Z,3.70
2023-04-26T05:36:03.622Z,4.10
2023-04-26T05:37:03.655Z,4.10
2023-04-26T05:38:03.621Z,4.00
2023-04-26T05:39:03.596Z,4.30
2023-04-26T05:40:03.580Z,4.10
2023-04-26T05:41:54.764Z,3.80
2023-04-26T05:42:55.729Z,4.40
2023-04-26T05:43:55.794Z,4.00
2023-04-26T05:44:55.706Z,4.10
2023-04-26T05:45:55.832Z,4.40
2023-04-26T05:46:55.708Z,3.80
2023-04-26T05:47:55.717Z,4.50
2023-04-26T05:48:55.672Z,3.90
2023-04-26T05:49:55.672Z,4.00
2023-04-26T05:50:55.640Z,4.00
2023-04-26T05:51:55.659Z,4.50
2023-04-26T05:52:55.633Z,4.60
2023-04-26T05:53:55.624Z,3.80
2023-04-26T05:54:55.599Z,4.90
2023-04-26T05:55:55.597Z,3.90
2023-04-26T05:56:57.844Z,4.00
2023-04-26T05:57:55.635Z,4.30
2023-04-26T05:58:55.566Z,4.90
2023-04-26T05:59:55.541Z,4.20
2023-04-26T06:00:55.518Z,4.60
2023-04-26T06:01:55.604Z,4.20
2023-04-26T06:02:55.652Z,3.70
2023-04-26T06:03:59.066Z,4.90
2023-04-26T06:04:55.594Z,4.80
2023-04-26T06:05:55.525Z,4.10
2023-04-26T06:06:55.485Z,4.90
2023-04-26T06:07:55.467Z,4.20
2023-04-26T06:08:55.526Z,4.50
2023-04-26T06:09:55.433Z,4.40
2023-04-26T06:10:55.448Z,4.50
2023-04-26T06:11:55.436Z,4.30
2023-04-26T06:12:55.394Z,4.90
2023-04-26T06:13:55.579Z,5.00
2023-04-26T06:14:55.375Z,4.80
2023-04-26T06:15:55.370Z,5.30
2023-04-26T06:16:55.426Z,4.40
2023-04-26T06:17:55.367Z,4.10
2023-04-26T06:18:55.334Z,4.20
2023-04-26T06:19:55.318Z,4.10
2023-04-26T06:20:55.307Z,4.20
2023-04-26T06:21:55.486Z,4.20
2023-04-26T06:22:55.290Z,4.30
2023-04-26T06:23:55.580Z,4.60
2023-04-26T06:24:55.278Z,4.30
2023-04-26T06:25:55.258Z,4.10
2023-04-26T06:26:55.278Z,4.10
2023-04-26T06:27:55.258Z,4.60
2023-04-26T06:28:55.230Z,4.10
2023-04-26T06:29:55.225Z,4.50
2023-04-26T06:30:55.254Z,4.70
2023-04-26T06:31:55.209Z,4.50
2023-04-26T06:32:55.237Z,4.50
2023-04-26T06:33:55.415Z,4.50
2023-04-26T06:34:55.165Z,4.00
2023-04-26T06:35:55.148Z,4.80
2023-04-26T06:36:55.212Z,4.60
2023-04-26T06:37:55.134Z,4.90
2023-04-26T06:38:55.129Z,4.40
2023-04-26T06:39:55.110Z,4.40
2023-04-26T06:40:55.097Z,4.40
2023-04-26T06:41:55.102Z,5.00
2023-04-26T06:42:55.083Z,4.50
2023-04-26T06:43:55.417Z,4.90
2023-04-26T06:44:55.051Z,4.60
2023-04-26T06:45:55.067Z,4.80
2023-04-26T06:46:55.046Z,5.40
2023-04-26T06:47:55.038Z,4.40
2023-04-26T06:48:55.013Z,4.80
2023-04-26T06:49:55.021Z,4.40
2023-04-26T06:50:54.996Z,4.30
2023-04-26T06:51:55.007Z,5.20
2023-04-26T06:52:54.976Z,4.60
2023-04-26T06:53:55.116Z,4.80
2023-04-26T06:54:57.567Z,4.80
2023-04-26T06:55:54.939Z,4.30
2023-04-26T06:56:54.989Z,4.90
2023-04-26T06:57:54.951Z,4.60
2023-04-26T06:58:54.905Z,4.90
2023-04-26T06:59:54.891Z,4.20
2023-04-26T07:00:54.903Z,4.60
2023-04-26T07:01:54.956Z,4.30
2023-04-26T07:02:54.964Z,4.10
2023-04-26T07:03:55.138Z,3.80
2023-04-26T07:04:55.014Z,4.00
2023-04-26T07:05:54.825Z,4.50
2023-04-26T07:06:54.829Z,3.70
2023-04-26T07:07:54.798Z,4.30
2023-04-26T07:08:54.909Z,4.40
2023-04-26T07:09:54.788Z,4.70
2023-04-26T07:10:54.767Z,4.10
2023-04-26T07:11:54.777Z,3.90
2023-04-26T07:12:54.752Z,4.10
2023-04-26T07:13:54.940Z,3.90
2023-04-26T07:14:54.730Z,3.10
2023-04-26T07:15:54.747Z,4.00
2023-04-26T07:16:54.712Z,3.80
2023-04-26T07:17:54.743Z,3.70
2023-04-26T07:18:54.674Z,3.40
2023-04-26T07:19:56.235Z,3.60
2023-04-26T07:20:54.664Z,3.80
2023-04-26T07:21:54.649Z,4.10
2023-04-26T07:22:54.650Z,3.50
2023-04-26T07:23:54.963Z,3.90
2023-04-26T07:24:54.631Z,4.10
2023-04-26T07:25:55.768Z,4.20
2023-04-26T07:26:54.610Z,4.30
2023-04-26T07:27:54.632Z,4.10
2023-04-26T07:28:54.569Z,3.70
2023-04-26T07:29:54.568Z,4.00
2023-04-26T07:30:54.559Z,4.20
2023-04-26T07:31:54.535Z,4.10
2023-04-26T07:32:54.635Z,4.50
2023-04-26T07:33:54.826Z,3.90
2023-04-26T07:34:54.508Z,4.00
2023-04-26T07:35:54.491Z,4.10
2023-04-26T07:36:54.483Z,3.70
2023-04-26T07:37:54.497Z,3.90
2023-04-26T07:38:54.462Z,4.00
2023-04-26T07:39:54.462Z,4.20
2023-04-26T07:40:54.456Z,4.30
2023-04-26T07:41:54.434Z,4.00
2023-04-26T07:42:54.441Z,4.50
2023-04-26T07:43:54.670Z,4.40
2023-04-26T07:44:54.400Z,3.70
2023-04-26T07:45:54.468Z,3.90
2023-04-26T07:46:54.362Z,4.50
2023-04-26T07:47:54.427Z,4.20
2023-04-26T07:48:54.366Z,4.80
2023-04-26T07:49:54.338Z,4.60
2023-04-26T07:50:54.336Z,3.70
2023-04-26T07:51:54.333Z,4.40
2023-04-26T07:52:54.332Z,4.70
2023-04-26T07:53:54.567Z,4.20
2023-04-26T07:54:54.303Z,4.10
2023-04-26T07:55:54.269Z,4.00
2023-04-26T07:56:54.262Z,3.90
2023-04-26T07:57:54.302Z,3.90
2023-04-26T07:58:54.262Z,4.30
2023-04-26T07:59:54.224Z,4.20
2023-04-26T08:00:54.226Z,5.20
2023-04-26T08:01:54.283Z,4.30
2023-04-26T08:02:54.496Z,4.40
2023-04-26T08:03:54.557Z,4.50
2023-04-26T08:04:54.319Z,4.30
2023-04-26T08:05:54.460Z,5.10
2023-04-26T08:06:54.161Z,4.10
2023-04-26T08:07:54.155Z,4.20
2023-04-26T08:08:54.146Z,4.10
2023-04-26T08:09:54.133Z,4.10
2023-04-26T08:10:54.117Z,3.90
2023-04-26T08:11:54.164Z,4.30
2023-04-26T08:12:54.114Z,4.20
2023-04-26T08:13:54.384Z,3.60
2023-04-26T08:14:54.068Z,4.50
2023-04-26T08:15:54.070Z,4.40
2023-04-26T08:16:54.128Z,3.50
2023-04-26T08:17:54.137Z,3.60
2023-04-26T08:18:54.046Z,3.90
2023-04-26T08:19:54.019Z,4.20
2023-04-26T08:20:54.007Z,3.60
2023-04-26T08:21:53.992Z,3.90
2023-04-26T08:22:54.019Z,3.80
2023-04-26T08:23:54.196Z,3.40
2023-04-26T08:24:53.958Z,3.70
2023-04-26T08:25:53.952Z,3.90
2023-04-26T08:26:54.088Z,3.90
2023-04-26T08:27:53.944Z,3.70
2023-04-26T08:28:53.940Z,3.20
2023-04-26T08:29:53.916Z,3.10
2023-04-26T08:30:53.917Z,2.90
2023-04-26T08:31:53.882Z,4.10
2023-04-26T08:32:53.936Z,3.50
2023-04-26T08:33:54.326Z,3.40
2023-04-26T08:34:53.865Z,3.20
2023-04-26T08:35:53.842Z,3.30
2023-04-26T08:36:53.844Z,3.00
2023-04-26T08:37:53.833Z,3.50
2023-04-26T08:38:53.807Z,3.80
2023-04-26T08:39:53.791Z,3.00
2023-04-26T08:40:53.777Z,3.00
2023-04-26T08:41:53.775Z,2.70
2023-04-26T08:42:53.791Z,3.10
2023-04-26T08:43:53.966Z,3.80
2023-04-26T08:44:53.745Z,2.60
2023-04-26T08:45:53.751Z,3.00
2023-04-26T08:46:53.762Z,2.80
2023-04-26T08:47:53.722Z,3.60
2023-04-26T08:48:53.703Z,3.30
2023-04-26T08:49:53.681Z,2.90
2023-04-26T08:50:53.684Z,3.10
2023-04-26T08:51:53.675Z,3.10
2023-04-26T08:52:53.676Z,3.40
2023-04-26T08:53:53.905Z,3.10
2023-04-26T08:54:53.633Z,3.50
2023-04-26T08:55:53.625Z,3.20
2023-04-26T08:56:53.616Z,3.30
2023-04-26T08:57:53.624Z,3.10
2023-04-26T08:58:53.586Z,2.80
2023-04-26T08:59:53.598Z,2.80
2023-04-26T09:00:53.573Z,3.30
2023-04-26T09:01:53.612Z,2.70
2023-04-26T09:02:53.976Z,2.90
2023-04-26T09:03:53.839Z,2.60
2023-04-26T09:04:53.614Z,2.70
2023-04-26T09:05:53.511Z,3.20
2023-04-26T09:06:53.515Z,2.60
2023-04-26T09:07:53.514Z,3.20
2023-04-26T09:08:53.478Z,2.50
2023-04-26T09:09:53.461Z,2.70
2023-04-26T09:10:53.476Z,2.30
2023-04-26T09:11:53.447Z,2.40
2023-04-26T09:12:53.680Z,2.90
2023-04-26T09:13:53.622Z,2.60
2023-04-26T09:14:53.459Z,2.70
2023-04-26T09:15:53.469Z,2.20
2023-04-26T09:16:53.396Z,2.50
2023-04-26T09:17:53.512Z,2.50
2023-04-26T09:18:53.507Z,2.30
2023-04-26T09:19:53.381Z,2.40
2023-04-26T09:20:53.347Z,2.10
2023-04-26T09:21:53.342Z,2.10
2023-04-26T09:22:53.353Z,2.40
2023-04-26T09:23:53.316Z,2.10
2023-04-26T09:24:53.304Z,2.10
2023-04-26T09:25:53.300Z,2.40
2023-04-26T09:26:53.279Z,2.40
2023-04-26T09:27:53.293Z,2.00
2023-04-26T09:28:53.462Z,2.50
2023-04-26T09:29:53.268Z,2.10
2023-04-26T09:30:53.255Z,1.70
2023-04-26T09:31:53.292Z,1.90
2023-04-26T09:32:53.287Z,1.90
2023-04-26T09:33:53.201Z,2.00
2023-04-26T09:34:53.195Z,1.90
2023-04-26T09:35:53.192Z,2.30
2023-04-26T09:36:53.194Z,2.40
2023-04-26T09:37:59.256Z,1.80
2023-04-26T09:38:53.300Z,2.00
2023-04-26T09:39:53.133Z,1.70
2023-04-26T09:40:53.124Z,1.80
2023-04-26T09:41:53.116Z,1.90
2023-04-26T09:42:53.119Z,2.40
2023-04-26T09:43:53.091Z,2.50
2023-04-26T09:44:53.075Z,2.50
2023-04-26T09:45:53.129Z,2.20
2023-04-26T09:46:53.105Z,2.30
2023-04-26T09:47:53.086Z,2.40
2023-04-26T09:48:53.353Z,2.60
2023-04-26T09:49:53.033Z,2.20
2023-04-26T09:50:53.059Z,2.10
2023-04-26T09:51:53.007Z,2.80
2023-04-26T09:52:53.007Z,2.30
2023-04-26T09:53:54.407Z,2.30
2023-04-26T09:54:53.833Z,2.60
2023-04-26T09:55:52.950Z,2.30
2023-04-26T09:56:52.958Z,2.80
2023-04-26T09:57:52.946Z,2.80
2023-04-26T09:58:53.291Z,2.40
2023-04-26T09:59:55.019Z,2.50
2023-04-26T10:00:52.947Z,2.80
2023-04-26T10:01:52.899Z,2.30
2023-04-26T10:02:52.957Z,2.50
2023-04-26T10:03:53.171Z,2.50
2023-04-26T10:04:52.942Z,2.40
2023-04-26T10:05:52.838Z,2.60
2023-04-26T10:06:52.843Z,2.10
2023-04-26T10:07:52.841Z,2.10
2023-04-26T10:08:52.998Z,1.70
2023-04-26T10:09:52.808Z,2.30
2023-04-26T10:10:52.801Z,2.00
2023-04-26T10:11:52.792Z,2.20
2023-04-26T10:12:52.794Z,1.90
2023-04-26T10:13:52.765Z,2.20
2023-04-26T10:14:52.747Z,2.20
2023-04-26T10:15:52.730Z,2.20
2023-04-26T10:16:52.763Z,1.90
2023-04-26T10:17:52.751Z,2.20
2023-04-26T10:18:52.918Z,2.50
2023-04-26T10:19:52.700Z,1.90
2023-04-26T10:20:52.678Z,2.20
2023-04-26T10:21:52.669Z,2.10
2023-04-26T10:22:52.690Z,1.60
2023-04-26T10:23:52.656Z,1.40
2023-04-26T10:24:52.647Z,1.60
2023-04-26T10:25:52.634Z,1.20
2023-04-26T10:26:52.628Z,1.40
2023-04-26T10:27:52.615Z,1.60
2023-04-26T10:28:56.162Z,1.60
2023-04-26T10:29:52.587Z,1.40
2023-04-26T10:30:52.569Z,1.60
2023-04-26T10:31:52.612Z,1.40
2023-04-26T10:32:52.668Z,1.40
2023-04-26T10:33:52.556Z,1.40
2023-04-26T10:34:52.532Z,1.90
2023-04-26T10:35:52.509Z,1.70
2023-04-26T10:36:52.500Z,1.60
2023-04-26T10:37:52.509Z,1.60
2023-04-26T10:38:52.692Z,1.90
2023-04-26T10:39:52.486Z,1.50
2023-04-26T10:40:53.425Z,1.50
2023-04-26T10:41:52.455Z,1.70
2023-04-26T10:42:52.457Z,1.50
2023-04-26T10:43:52.693Z,1.90
2023-04-26T10:44:52.436Z,1.80
2023-04-26T10:45:52.544Z,1.50
2023-04-26T10:46:52.397Z,1.60
2023-04-26T10:47:52.432Z,1.50
2023-04-26T10:48:52.547Z,1.60
2023-04-26T10:49:52.365Z,1.70
2023-04-26T10:50:52.358Z,1.80
2023-04-26T10:51:52.341Z,1.60
2023-04-26T10:52:52.360Z,1.60
2023-04-26T10:53:52.562Z,1.60
2023-04-26T10:54:52.319Z,1.80
2023-04-26T10:55:52.306Z,2.10
2023-04-26T10:56:52.286Z,2.20
2023-04-26T10:57:52.289Z,1.80
2023-04-26T10:58:52.262Z,2.20
2023-04-26T10:59:54.838Z,2.00
2023-04-26T11:00:52.258Z,2.20
2023-04-26T11:01:52.387Z,2.40
2023-04-26T11:02:53.441Z,2.10
2023-04-26T11:03:52.459Z,1.90
2023-04-26T11:04:52.304Z,2.10
2023-04-26T11:05:52.201Z,2.20
2023-04-26T11:06:52.192Z,2.40
2023-04-26T11:07:52.179Z,2.20
2023-04-26T11:08:52.359Z,2.30
2023-04-26T11:09:52.160Z,2.20
2023-04-26T11:10:52.137Z,2.00
2023-04-26T11:11:52.128Z,2.00
2023-04-26T11:12:52.146Z,2.00
2023-04-26T11:13:52.108Z,2.20
2023-04-26T11:14:52.094Z,1.70
2023-04-26T11:15:52.667Z,2.20
2023-04-26T11:16:52.077Z,2.00
2023-04-26T11:17:52.146Z,2.00
2023-04-26T11:18:52.223Z,1.90
2023-04-26T11:19:52.040Z,2.20
2023-04-26T11:20:52.027Z,1.90
2023-04-26T11:21:52.353Z,2.00
2023-04-26T11:22:52.018Z,1.60
2023-04-26T11:23:51.995Z,2.10
2023-04-26T11:24:51.984Z,1.80
2023-04-26T11:25:51.989Z,1.80
2023-04-26T11:26:51.962Z,1.80
2023-04-26T11:27:51.975Z,1.90
2023-04-26T11:28:52.144Z,1.70
2023-04-26T11:29:51.926Z,1.80
2023-04-26T11:30:51.922Z,2.00
2023-04-26T11:31:51.989Z,1.80
2023-04-26T11:32:51.918Z,2.50
2023-04-26T11:33:51.909Z,2.10
2023-04-26T11:34:51.871Z,1.70
2023-04-26T11:35:51.870Z,1.80
2023-04-26T11:36:51.850Z,1.70
2023-04-26T11:37:51.851Z,1.60
2023-04-26T11:38:51.991Z,2.00
2023-04-26T11:39:51.818Z,1.60
2023-04-26T11:40:51.810Z,1.90
2023-04-26T11:41:57.833Z,2.10
2023-04-26T11:42:51.782Z,1.60
2023-04-26T11:43:51.818Z,1.70
2023-04-26T11:44:51.774Z,1.70
2023-04-26T11:45:51.773Z,2.10
2023-04-26T11:46:51.764Z,2.40
2023-04-26T11:47:51.785Z,2.00
2023-04-26T11:48:51.902Z,2.30
2023-04-26T11:49:51.754Z,1.90
2023-04-26T11:50:51.730Z,2.20
2023-04-26T11:51:51.702Z,2.20
2023-04-26T11:52:51.729Z,2.20
2023-04-26T11:53:51.733Z,1.80
2023-04-26T11:54:51.680Z,2.30
2023-04-26T11:55:51.673Z,2.10
2023-04-26T11:56:51.661Z,1.60
2023-04-26T11:57:51.628Z,2.40
2023-04-26T11:58:51.901Z,2.00
2023-04-26T11:59:51.627Z,2.60
2023-04-26T12:00:51.672Z,2.30
2023-04-26T12:01:51.640Z,1.80
2023-04-26T12:02:51.819Z,2.20
2023-04-26T12:03:51.784Z,2.60
2023-04-26T12:04:51.737Z,2.10
2023-04-26T12:05:51.579Z,2.50
2023-04-26T12:06:51.539Z,2.40
2023-04-26T12:07:51.529Z,2.20
2023-04-26T12:08:51.908Z,2.30
2023-04-26T12:09:51.496Z,2.70
2023-04-26T12:10:51.489Z,2.10
2023-04-26T12:11:51.504Z,3.00
2023-04-26T12:12:51.494Z,2.30
2023-04-26T12:13:51.514Z,1.90
2023-04-26T12:14:51.446Z,2.10
2023-04-26T12:15:51.456Z,2.20
2023-04-26T12:16:51.493Z,2.10
2023-04-26T12:17:51.512Z,2.80
2023-04-26T12:18:51.449Z,2.50
2023-04-26T12:19:51.392Z,1.90
2023-04-26T12:20:51.411Z,2.00
2023-04-26T12:21:51.362Z,1.70
2023-04-26T12:22:51.373Z,1.90
2023-04-26T12:23:51.379Z,1.80
2023-04-26T12:24:51.371Z,2.40
2023-04-26T12:25:51.330Z,1.70
2023-04-26T12:26:51.316Z,2.10
2023-04-26T12:27:51.306Z,1.70
2023-04-26T12:28:51.314Z,1.60
2023-04-26T12:29:51.304Z,1.40
2023-04-26T12:30:51.276Z,1.90
2023-04-26T12:31:51.308Z,1.60
2023-04-26T12:32:51.547Z,1.10
2023-04-26T12:33:51.264Z,1.50
2023-04-26T12:34:51.242Z,1.80
2023-04-26T12:35:51.241Z,1.50
2023-04-26T12:36:51.223Z,1.30
2023-04-26T12:37:52.162Z,1.40
2023-04-26T12:38:51.272Z,1.50
2023-04-26T12:39:51.181Z,1.70
2023-04-26T12:40:51.179Z,1.70
2023-04-26T12:41:51.187Z,1.50
2023-04-26T12:42:51.153Z,1.80
2023-04-26T12:43:51.155Z,1.40
2023-04-26T12:44:51.236Z,1.60
2023-04-26T12:45:51.132Z,1.40
2023-04-26T12:46:51.097Z,1.70
2023-04-26T12:47:51.128Z,1.40
2023-04-26T12:48:51.118Z,1.10
2023-04-26T12:49:51.059Z,1.20
2023-04-26T12:50:51.332Z,1.20
2023-04-26T12:51:51.034Z,0.90
2023-04-26T12:52:51.008Z,1.50
2023-04-26T12:53:51.060Z,0.90
2023-04-26T12:54:51.008Z,1.30
2023-04-26T12:55:50.998Z,1.20
2023-04-26T12:56:50.998Z,1.00
2023-04-26T12:57:50.969Z,1.20
2023-04-26T12:58:50.980Z,1.30
2023-04-26T12:59:50.971Z,1.50
2023-04-26T13:00:50.929Z,1.20
2023-04-26T13:01:51.042Z,1.50
2023-04-26T13:02:51.013Z,1.30
2023-04-26T13:03:51.144Z,1.30
2023-04-26T13:04:51.118Z,1.20
2023-04-26T13:05:50.892Z,1.50
2023-04-26T13:06:50.881Z,1.10
2023-04-26T13:07:50.885Z,1.30
2023-04-26T13:08:50.854Z,1.20
2023-04-26T13:09:50.848Z,1.10
2023-04-26T13:10:50.822Z,1.30
2023-04-26T13:11:50.806Z,1.30
2023-04-26T13:12:50.794Z,1.20
2023-04-26T13:13:50.811Z,1.30
2023-04-26T13:14:50.775Z,1.40
2023-04-26T13:15:50.789Z,1.40
2023-04-26T13:16:50.762Z,1.60
2023-04-26T13:17:50.793Z,1.40
2023-04-26T13:18:50.748Z,1.40